Time;durP1;ratioP1;P1;durP2;ratioP2;P2;SDS_P1;SDS_P2;PMS_P1;PMS_P2;Temp;Humidity;BMP_temperature;BMP_pressure;BME280_temperature;BME280_humidity;BME280_pressure;Samples;Min_cycle;Max_cycle;Signal;HPM_P1;HPM_P2
2021/01/27 00:00:25;;;;;;;9.53;8.50;;;;;;;-0.92;98.58;98255.97;5003856;28;20205;-73
2021/01/27 00:02:52;;;;;;;8.43;7.57;;;;;;;-0.88;97.87;98247.06;5009986;28;20231;-74
2021/01/27 00:05:21;;;;;;;7.40;6.70;;;;;;;-0.99;98.17;98247.66;5012177;28;20588;-73
2021/01/27 00:07:49;;;;;;;7.10;6.40;;;;;;;-1.03;99.14;98252.19;5013090;28;20640;-75
2021/01/27 00:10:16;;;;;;;7.33;6.73;;;;;;;-0.94;98.39;98250.00;5011661;28;20540;-74
2021/01/27 00:12:43;;;;;;;8.43;7.27;;;;;;;-0.95;98.04;98245.72;5009522;28;20221;-74
2021/01/27 00:15:14;;;;;;;6.67;6.23;;;;;;;-1.00;97.62;98247.75;5012961;28;20196;-74
2021/01/27 00:17:41;;;;;;;7.07;6.40;;;;;;;-1.04;99.33;98247.06;5009563;28;20333;-74
2021/01/27 00:20:09;;;;;;;8.03;7.23;;;;;;;-1.08;99.89;98236.00;5016644;28;20688;-74
2021/01/27 00:22:36;;;;;;;8.33;7.53;;;;;;;-1.11;99.91;98232.72;5011017;28;20479;-74
2021/01/27 00:25:05;;;;;;;10.40;9.50;;;;;;;-1.07;100.00;98236.81;5010681;28;20205;-74
2021/01/27 00:27:32;;;;;;;8.27;7.47;;;;;;;-1.06;99.48;98238.50;5013060;28;20672;-74
2021/01/27 00:29:59;;;;;;;8.43;7.73;;;;;;;-1.08;99.32;98233.41;5010442;28;20573;-74
2021/01/27 00:32:28;;;;;;;7.93;7.23;;;;;;;-1.11;99.69;98235.31;5008000;28;20224;-74
2021/01/27 00:34:55;;;;;;;8.40;7.60;;;;;;;-1.12;100.00;98236.25;5013006;28;20558;-75
2021/01/27 00:37:23;;;;;;;8.60;7.77;;;;;;;-1.19;100.00;98234.00;5010112;28;20204;-73
2021/01/27 00:39:50;;;;;;;10.13;8.67;;;;;;;-1.16;100.00;98227.75;5011248;28;20212;-74
2021/01/27 00:42:17;;;;;;;9.23;8.33;;;;;;;-1.15;100.00;98234.63;5005342;28;20229;-75
2021/01/27 00:44:43;;;;;;;11.70;10.27;;;;;;;-1.07;100.00;98227.28;5015723;28;20236;-75
2021/01/27 00:47:26;;;;;;;9.93;9.07;;;;;;;-1.09;100.00;98223.94;5006319;28;20213;-74
2021/01/27 00:49:54;;;;;;;9.33;8.53;;;;;;;-1.11;100.00;98233.56;5008875;28;20219;-75
2021/01/27 00:52:21;;;;;;;9.27;8.37;;;;;;;-1.05;100.00;98230.63;5009417;28;20204;-74
2021/01/27 00:54:48;;;;;;;10.30;8.70;;;;;;;-1.02;100.00;98237.41;5014861;28;20864;-75
2021/01/27 00:57:15;;;;;;;10.40;9.17;;;;;;;-1.19;100.00;98227.94;5010871;28;20215;-75
2021/01/27 00:59:42;;;;;;;10.77;9.77;;;;;;;-1.10;100.00;98229.19;5013089;28;20572;-75
2021/01/27 01:02:09;;;;;;;12.77;11.47;;;;;;;-1.26;100.00;98219.66;5011678;28;20609;-74
2021/01/27 01:04:37;;;;;;;10.57;9.50;;;;;;;-1.35;100.00;98217.53;5010216;28;20231;-75
2021/01/27 01:07:04;;;;;;;11.60;10.60;;;;;;;-1.39;100.00;98216.00;5014020;28;20205;-74
2021/01/27 01:09:31;;;;;;;11.97;10.83;;;;;;;-1.40;100.00;98212.59;5005056;28;20572;-74
2021/01/27 01:11:58;;;;;;;12.93;11.67;;;;;;;-1.38;100.00;98200.34;5014138;28;20580;-74
2021/01/27 01:14:26;;;;;;;16.77;15.10;;;;;;;-1.24;100.00;98201.34;5010599;28;20471;-74
2021/01/27 01:16:53;;;;;;;12.33;11.13;;;;;;;-1.34;100.00;98198.41;5011709;28;20209;-74
2021/01/27 01:19:20;;;;;;;11.97;10.87;;;;;;;-1.41;100.00;98199.66;5003996;28;20209;-74
2021/01/27 01:21:48;;;;;;;14.53;11.77;;;;;;;-1.48;100.00;98193.97;5003128;28;20212;-75
2021/01/27 01:24:17;;;;;;;13.43;12.03;;;;;;;-1.52;100.00;98189.84;5011421;28;20318;-74
2021/01/27 01:26:44;;;;;;;20.87;17.50;;;;;;;-1.50;100.00;98191.44;5004655;28;20632;-74
2021/01/27 01:29:11;;;;;;;14.03;12.73;;;;;;;-1.52;100.00;98193.28;5011983;28;20443;-74
2021/01/27 01:31:38;;;;;;;14.97;13.37;;;;;;;-1.53;100.00;98186.41;5006544;28;20673;-74
2021/01/27 01:34:05;;;;;;;16.20;14.13;;;;;;;-1.48;100.00;98186.19;5009787;28;20547;-74
2021/01/27 01:36:32;;;;;;;14.77;13.20;;;;;;;-1.50;100.00;98188.84;5007048;28;20205;-73
2021/01/27 01:39:00;;;;;;;15.63;13.50;;;;;;;-1.50;100.00;98188.03;5012257;28;20220;-74
2021/01/27 01:41:27;;;;;;;15.80;13.87;;;;;;;-1.43;100.00;98186.75;5006927;28;20662;-74
2021/01/27 01:43:54;;;;;;;14.90;12.60;;;;;;;-1.48;100.00;98189.59;5009838;28;20700;-74
2021/01/27 01:46:24;;;;;;;18.10;13.93;;;;;;;-1.49;100.00;98189.72;5009469;28;20374;-74
2021/01/27 01:48:54;;;;;;;15.57;13.97;;;;;;;-1.44;100.00;98184.22;5007756;28;20622;-75
2021/01/27 01:51:25;;;;;;;14.37;13.03;;;;;;;-1.25;100.00;98189.25;5010602;28;20200;-74
2021/01/27 01:53:56;;;;;;;15.00;12.40;;;;;;;-1.36;100.00;98184.66;5004536;28;20782;-74
2021/01/27 01:56:26;;;;;;;15.37;13.90;;;;;;;-1.40;100.00;98180.53;5006441;28;20205;-74
2021/01/27 01:58:53;;;;;;;14.50;12.57;;;;;;;-1.41;100.00;98184.06;5006063;28;20247;-75
2021/01/27 02:01:21;;;;;;;15.23;13.73;;;;;;;-1.43;100.00;98181.56;5011401;28;20439;-74
2021/01/27 02:03:50;;;;;;;13.63;12.33;;;;;;;-1.40;100.00;98180.53;5008516;28;20228;-75
2021/01/27 02:06:17;;;;;;;14.50;13.00;;;;;;;-1.42;100.00;98178.03;5009306;28;20442;-75
2021/01/27 02:08:46;;;;;;;14.73;13.33;;;;;;;-1.38;100.00;98176.09;5006401;28;20452;-74
2021/01/27 02:11:15;;;;;;;14.20;12.97;;;;;;;-1.46;100.00;98171.34;5003163;28;20209;-74
2021/01/27 02:14:03;;;;;;;15.37;12.77;;;;;;;-1.30;100.00;98166.13;5008366;28;20236;-75
2021/01/27 02:16:36;;;;;;;14.63;13.23;;;;;;;-1.47;100.00;98164.47;5007790;28;20220;-74
2021/01/27 02:19:36;;;;;;;15.80;12.60;;;;;;;-1.46;100.00;98166.97;5008584;28;20486;-75
2021/01/27 02:22:16;;;;;;;11.90;10.80;;;;;;;-1.37;100.00;98175.16;5012673;28;20475;-74
2021/01/27 02:25:14;;;;;;;13.77;12.57;;;;;;;-1.41;100.00;98174.53;5005087;28;20229;-74
2021/01/27 02:27:44;;;;;;;12.30;11.10;;;;;;;-1.39;100.00;98177.03;5002120;28;20196;-74
2021/01/27 02:30:46;;;;;;;13.47;12.07;;;;;;;-1.39;100.00;98166.63;5009984;28;20211;-74
2021/01/27 02:33:44;;;;;;;12.97;11.77;;;;;;;-1.32;100.00;98158.41;5009266;28;20248;-74
2021/01/27 02:36:15;;;;;;;11.57;10.40;;;;;;;-1.29;100.00;98170.41;5004678;28;20204;-75
2021/01/27 02:38:49;;;;;;;11.43;10.33;;;;;;;-1.23;100.00;98177.00;5009013;28;20212;-75
2021/01/27 02:41:21;;;;;;;10.63;9.73;;;;;;;-1.26;100.00;98172.84;5007040;28;20552;-74
2021/01/27 02:43:52;;;;;;;10.97;9.37;;;;;;;-1.21;100.00;98169.97;5004797;28;20236;-74
2021/01/27 02:46:22;;;;;;;12.73;10.03;;;;;;;-1.32;100.00;98167.97;5005038;28;20213;-74
2021/01/27 02:48:56;;;;;;;10.60;9.60;;;;;;;-1.31;100.00;98167.06;5008032;28;20212;-75
2021/01/27 02:51:26;;;;;;;9.73;8.73;;;;;;;-1.40;100.00;98175.34;5009041;28;20211;-73
2021/01/27 02:53:57;;;;;;;9.87;8.97;;;;;;;-1.43;100.00;98168.56;5005930;28;20463;-75
2021/01/27 02:56:29;;;;;;;9.80;8.77;;;;;;;-1.51;100.00;98161.19;5007823;28;20208;-73
2021/01/27 02:58:59;;;;;;;9.00;8.30;;;;;;;-1.64;100.00;98158.41;5005043;28;20292;-75
2021/01/27 03:01:33;;;;;;;8.80;8.00;;;;;;;-1.79;100.00;98154.03;5010412;28;20223;-75
2021/01/27 03:04:05;;;;;;;8.30;7.60;;;;;;;-1.90;100.00;98150.25;5006722;28;20330;-75
2021/01/27 03:06:33;;;;;;;8.53;7.83;;;;;;;-1.90;100.00;98145.03;5013036;28;20201;-75
2021/01/27 03:09:04;;;;;;;8.90;8.20;;;;;;;-1.96;100.00;98152.34;5010295;28;20205;-75
2021/01/27 03:11:33;;;;;;;9.47;8.53;;;;;;;-2.10;100.00;98151.28;5006294;28;20208;-75
2021/01/27 03:14:04;;;;;;;8.93;8.13;;;;;;;-2.22;100.00;98152.78;5006503;28;20351;-75
2021/01/27 03:16:34;;;;;;;9.30;8.47;;;;;;;-2.36;100.00;98147.47;5011312;28;20208;-75
2021/01/27 03:19:06;;;;;;;9.30;8.50;;;;;;;-2.47;100.00;98145.41;5011232;28;20205;-74
2021/01/27 03:21:41;;;;;;;8.33;7.60;;;;;;;-2.56;100.00;98145.88;5015094;28;20208;-74
2021/01/27 03:24:14;;;;;;;9.73;8.93;;;;;;;-2.69;100.00;98141.31;5010650;28;20227;-74
2021/01/27 03:26:48;;;;;;;8.57;7.77;;;;;;;-2.71;100.00;98137.97;5002869;28;20211;-75
2021/01/27 03:29:23;;;;;;;9.47;8.67;;;;;;;-2.83;100.00;98142.00;5007953;28;20447;-74
2021/01/27 03:31:51;;;;;;;8.87;8.07;;;;;;;-2.92;100.00;98138.09;5005492;28;20209;-74
2021/01/27 03:34:22;;;;;;;9.70;8.53;;;;;;;-3.03;100.00;98123.97;5013589;28;20466;-74
2021/01/27 03:36:54;;;;;;;10.07;9.13;;;;;;;-3.12;100.00;98136.47;5006960;28;20209;-74
2021/01/27 03:39:23;;;;;;;8.57;7.87;;;;;;;-3.21;100.00;98132.59;5004752;28;20944;-74
2021/01/27 03:41:57;;;;;;;8.63;7.83;;;;;;;-3.27;100.00;98135.47;5003098;28;20463;-74
2021/01/27 03:44:26;;;;;;;9.87;8.87;;;;;;;-3.35;100.00;98141.03;5007819;28;21036;-73
2021/01/27 03:46:59;;;;;;;10.83;9.83;;;;;;;-3.36;100.00;98139.38;5011254;28;20631;-74
2021/01/27 03:49:30;;;;;;;9.87;8.70;;;;;;;-3.47;100.00;98139.00;5005005;28;20685;-73
2021/01/27 03:52:00;;;;;;;9.87;8.97;;;;;;;-3.49;100.00;98144.28;5010612;28;21110;-74
2021/01/27 03:54:29;;;;;;;9.87;8.87;;;;;;;-3.58;100.00;98142.13;5004050;28;20459;-73
2021/01/27 03:57:00;;;;;;;10.80;8.63;;;;;;;-3.61;100.00;98141.41;5005562;28;20212;-73
2021/01/27 03:59:28;;;;;;;10.43;8.33;;;;;;;-3.67;100.00;98143.38;5005741;28;20673;-74
2021/01/27 04:01:56;;;;;;;9.03;8.23;;;;;;;-3.67;100.00;98139.94;5008731;28;20204;-74
2021/01/27 04:04:24;;;;;;;9.63;8.70;;;;;;;-3.75;100.00;98144.63;5009903;28;20492;-72
2021/01/27 04:06:52;;;;;;;10.97;9.87;;;;;;;-3.79;100.00;98139.59;5007770;28;20565;-73
2021/01/27 04:09:20;;;;;;;11.87;10.67;;;;;;;-3.84;100.00;98141.56;5011063;28;20819;-75
2021/01/27 04:11:47;;;;;;;15.23;11.50;;;;;;;-3.86;100.00;98127.00;5004563;28;20459;-75
2021/01/27 04:14:14;;;;;;;16.30;13.57;;;;;;;-3.85;100.00;98132.13;5006639;28;20698;-74
2021/01/27 04:16:43;;;;;;;12.83;11.70;;;;;;;-3.91;100.00;98132.41;5009042;28;20991;-74
2021/01/27 04:19:10;;;;;;;14.33;12.83;;;;;;;-3.97;100.00;98132.69;5010984;28;20890;-75
2021/01/27 04:21:37;;;;;;;14.73;13.33;;;;;;;-4.02;100.00;98130.28;5012380;28;20208;-74
2021/01/27 04:24:05;;;;;;;14.83;11.73;;;;;;;-4.02;100.00;98126.84;5013290;28;20690;-73
2021/01/27 04:26:32;;;;;;;13.03;11.70;;;;;;;-4.11;100.00;98120.34;5012509;28;20463;-74
2021/01/27 04:28:59;;;;;;;12.70;11.37;;;;;;;-4.16;100.00;98117.97;5014586;28;20451;-75
2021/01/27 04:31:26;;;;;;;11.80;10.40;;;;;;;-4.20;100.00;98121.59;5002529;28;20441;-75
2021/01/27 04:33:54;;;;;;;11.30;9.90;;;;;;;-4.18;100.00;98119.78;5008148;28;20876;-75
2021/01/27 04:36:21;;;;;;;11.80;10.67;;;;;;;-4.21;100.00;98125.09;5004740;28;20663;-75
2021/01/27 04:38:50;;;;;;;12.17;10.87;;;;;;;-4.17;100.00;98112.84;5008359;28;20982;-74
2021/01/27 04:41:17;;;;;;;11.33;10.33;;;;;;;-4.28;100.00;98101.22;5001919;28;20453;-75
2021/01/27 04:43:47;;;;;;;11.87;10.77;;;;;;;-4.26;100.00;98104.59;5008221;28;20578;-75
2021/01/27 04:46:19;;;;;;;11.33;10.33;;;;;;;-4.34;100.00;98104.09;4999478;28;20205;-73
2021/01/27 04:48:55;;;;;;;12.17;11.03;;;;;;;-4.18;100.00;98104.25;5007557;28;20210;-74
2021/01/27 04:51:26;;;;;;;11.60;10.33;;;;;;;-4.13;100.00;98089.34;5001231;28;20447;-74
2021/01/27 04:54:13;;;;;;;12.13;10.87;;;;;;;-4.18;100.00;98086.13;5002167;28;20460;-75
2021/01/27 04:57:04;;;;;;;11.73;10.60;;;;;;;-4.20;100.00;98085.38;5004633;28;20207;-75
2021/01/27 04:59:41;;;;;;;13.60;11.13;;;;;;;-4.30;100.00;98073.75;4997448;28;20443;-76
2021/01/27 05:02:22;;;;;;;11.33;10.13;;;;;;;-4.37;100.00;98068.00;5008352;28;20450;-76
2021/01/27 05:05:01;;;;;;;12.70;11.10;;;;;;;-4.45;100.00;98060.56;5002693;28;20885;-75
2021/01/27 05:07:31;;;;;;;12.07;10.77;;;;;;;-4.51;100.00;98053.94;5010416;28;20462;-71
2021/01/27 05:10:00;;;;;;;11.07;9.97;;;;;;;-4.49;100.00;98056.44;5003780;28;21247;-70
2021/01/27 05:12:33;;;;;;;12.33;11.03;;;;;;;-4.52;100.00;98049.69;5009288;28;20546;-70
2021/01/27 05:15:01;;;;;;;12.87;11.17;;;;;;;-4.43;100.00;98048.41;5005546;28;20448;-71
2021/01/27 05:17:29;;;;;;;11.23;10.27;;;;;;;-4.55;100.00;98044.63;5005428;28;20454;-70
2021/01/27 05:19:56;;;;;;;12.93;11.53;;;;;;;-4.34;100.00;98044.59;5009473;28;20518;-70
2021/01/27 05:22:23;;;;;;;12.90;11.70;;;;;;;-4.35;100.00;98035.13;5013403;28;20451;-69
2021/01/27 05:24:50;;;;;;;13.40;11.93;;;;;;;-4.42;100.00;98041.50;5008105;28;20911;-69
2021/01/27 05:27:22;;;;;;;12.60;11.37;;;;;;;-4.49;100.00;98032.34;5008889;28;20512;-70
2021/01/27 05:29:52;;;;;;;12.80;11.37;;;;;;;-4.56;100.00;98031.78;5008357;28;20455;-76
2021/01/27 05:32:21;;;;;;;11.50;10.33;;;;;;;-4.63;100.00;98025.19;5006465;28;20886;-75
2021/01/27 05:34:51;;;;;;;13.67;12.33;;;;;;;-4.60;100.00;98025.88;5005058;28;20483;-76
2021/01/27 05:37:20;;;;;;;13.07;11.87;;;;;;;-4.49;100.00;98024.59;5006326;28;20553;-75
2021/01/27 05:39:49;;;;;;;13.10;11.63;;;;;;;-4.59;100.00;98018.97;5007587;28;20820;-77
2021/01/27 05:42:23;;;;;;;14.90;11.40;;;;;;;-4.36;100.00;98023.13;5007103;28;20815;-75
2021/01/27 05:44:51;;;;;;;13.53;12.13;;;;;;;-4.52;100.00;98025.56;5008586;28;20500;-76
2021/01/27 05:47:38;;;;;;;15.23;13.93;;;;;;;-4.59;100.00;98021.56;5004164;28;20444;-76
2021/01/27 05:50:31;;;;;;;14.03;12.23;;;;;;;-4.54;100.00;98022.19;5006072;28;20460;-75
2021/01/27 05:53:12;;;;;;;12.23;10.97;;;;;;;-4.61;100.00;98020.78;5002331;28;20468;-75
2021/01/27 05:55:55;;;;;;;12.73;11.43;;;;;;;-4.70;100.00;98025.47;5005347;28;20444;-76
2021/01/27 05:58:23;;;;;;;13.00;11.80;;;;;;;-4.59;100.00;98031.91;5001209;28;20452;-75
2021/01/27 06:00:50;;;;;;;17.83;14.00;;;;;;;-4.54;100.00;98038.56;5001732;28;20462;-75
2021/01/27 06:03:22;;;;;;;13.97;12.50;;;;;;;-4.54;100.00;98030.81;5009618;28;20498;-76
2021/01/27 06:05:51;;;;;;;13.60;12.20;;;;;;;-4.65;100.00;98031.28;5003931;28;20452;-75
2021/01/27 06:08:20;;;;;;;12.97;11.23;;;;;;;-4.83;100.00;98037.25;5004767;28;20474;-75
2021/01/27 06:10:47;;;;;;;11.90;10.77;;;;;;;-4.93;100.00;98031.63;5001864;28;20837;-76
2021/01/27 06:13:20;;;;;;;11.90;10.70;;;;;;;-4.95;100.00;98036.88;5005256;28;21019;-75
2021/01/27 06:15:47;;;;;;;11.63;10.60;;;;;;;-4.98;100.00;98029.25;5005131;28;20435;-74
2021/01/27 06:18:27;;;;;;;11.80;10.60;;;;;;;-4.99;100.00;98024.13;5001640;28;20554;-75
2021/01/27 06:21:30;;;;;;;13.57;12.30;;;;;;;-5.01;100.00;98026.78;5008013;28;20459;-77
2021/01/27 06:24:20;;;;;;;11.17;10.07;;;;;;;-5.03;100.00;98023.44;5009969;28;20802;-76
2021/01/27 06:27:21;;;;;;;13.67;10.80;;;;;;;-5.04;100.00;98026.94;4997672;28;20456;-76
2021/01/27 06:30:32;;;;;;;11.27;10.17;;;;;;;-5.02;100.00;98032.88;4997616;28;20479;-77
2021/01/27 06:33:13;;;;;;;14.40;11.27;;;;;;;-5.00;100.00;98037.97;4983397;28;20892;-76
2021/01/27 06:35:53;;;;;;;13.13;11.90;;;;;;;-4.97;100.00;98028.34;5006688;28;20448;-77
2021/01/27 06:38:41;;;;;;;12.73;10.87;;;;;;;-4.74;100.00;98033.41;5008437;28;20450;-77
2021/01/27 06:41:31;;;;;;;12.40;11.20;;;;;;;-4.83;100.00;98024.31;5008637;28;20543;-77
2021/01/27 06:44:08;;;;;;;11.27;10.27;;;;;;;-4.80;100.00;98022.44;5013606;28;20502;-76
2021/01/27 06:46:53;;;;;;;12.77;11.50;;;;;;;-4.81;100.00;98020.75;5007435;28;20513;-76
2021/01/27 06:49:57;;;;;;;12.47;11.30;;;;;;;-4.65;100.00;98027.84;5004530;28;20887;-76
2021/01/27 06:52:42;;;;;;;13.07;10.80;;;;;;;-4.55;100.00;98017.94;5000476;28;20466;-76
2021/01/27 06:55:19;;;;;;;12.90;11.53;;;;;;;-4.55;100.00;98012.75;5007477;28;20443;-77
2021/01/27 06:58:11;;;;;;;12.77;11.33;;;;;;;-4.38;100.00;98020.59;5004279;28;21069;-77
2021/01/27 07:00:41;;;;;;;12.77;9.93;;;;;;;-4.32;100.00;98018.66;5013110;28;20454;-78
2021/01/27 07:03:45;;;;;;;12.33;9.40;;;;;;;-4.43;100.00;98017.38;5012711;28;20466;-77
2021/01/27 07:06:31;;;;;;;13.13;10.90;;;;;;;-4.45;100.00;98011.44;4951667;28;20468;-77
2021/01/27 07:09:46;;;;;;;10.73;9.33;;;;;;;-4.53;100.00;98010.94;5006985;28;20474;-77
2021/01/27 07:12:21;;;;;;;10.77;9.77;;;;;;;-4.51;100.00;98009.13;4928130;29;20465;-77
2021/01/27 07:15:16;;;;;;;11.17;10.17;;;;;;;-4.55;100.00;98005.81;4926560;29;20467;-77
2021/01/27 07:18:05;;;;;;;11.30;10.27;;;;;;;-4.46;100.00;98014.09;4987920;28;20995;-77
2021/01/27 07:20:35;;;;;;;11.40;10.40;;;;;;;-4.42;100.00;98007.88;5008591;28;20460;-77
2021/01/27 07:23:07;;;;;;;13.53;10.80;;;;;;;-4.26;100.00;98008.00;5012417;28;20475;-77
2021/01/27 07:25:45;;;;;;;10.40;9.60;;;;;;;-4.24;100.00;98008.78;5009923;28;20443;-77
2021/01/27 07:28:18;;;;;;;12.30;11.10;;;;;;;-4.16;100.00;98006.66;5005348;28;20439;-77
2021/01/27 07:30:54;;;;;;;11.60;10.50;;;;;;;-4.08;100.00;98011.50;5008271;28;20451;-74
2021/01/27 07:33:26;;;;;;;12.53;11.03;;;;;;;-3.73;100.00;98016.75;5009372;28;21070;-77
2021/01/27 07:35:59;;;;;;;12.33;11.03;;;;;;;-3.56;100.00;98033.22;5005513;28;20447;-77
2021/01/27 07:38:28;;;;;;;13.30;11.77;;;;;;;-3.72;100.00;98033.13;5003448;28;20462;-77
2021/01/27 07:40:59;;;;;;;17.97;11.97;;;;;;;-3.55;100.00;98038.34;5006506;28;20877;-77
2021/01/27 07:43:29;;;;;;;13.17;11.87;;;;;;;-3.51;100.00;98042.47;5008905;28;20487;-76
2021/01/27 07:45:59;;;;;;;14.20;12.80;;;;;;;-3.25;100.00;98026.53;5006972;28;20471;-77
2021/01/27 07:48:32;;;;;;;15.63;12.93;;;;;;;-3.36;100.00;98019.28;5008281;28;20662;-78
2021/01/27 07:51:04;;;;;;;16.53;12.47;;;;;;;-3.64;100.00;98021.50;5007637;28;20447;-78
2021/01/27 07:53:36;;;;;;;13.40;12.03;;;;;;;-3.35;100.00;98032.19;5011991;28;20466;-77
2021/01/27 07:56:10;;;;;;;14.70;13.17;;;;;;;-3.49;100.00;98037.19;5012412;28;20448;-78
2021/01/27 07:58:42;;;;;;;14.73;13.23;;;;;;;-3.56;100.00;98036.66;5013117;28;20442;-77
2021/01/27 08:01:12;;;;;;;12.87;11.57;;;;;;;-3.46;100.00;98036.22;5014415;28;20447;-78
2021/01/27 08:03:46;;;;;;;13.23;11.97;;;;;;;-3.31;100.00;98034.63;5011862;28;20701;-78
2021/01/27 08:06:16;;;;;;;13.40;12.10;;;;;;;-3.31;100.00;98038.03;5014207;28;20204;-77
2021/01/27 08:08:46;;;;;;;12.47;11.23;;;;;;;-3.14;100.00;98049.34;5012016;28;20451;-78
2021/01/27 08:11:17;;;;;;;13.70;11.50;;;;;;;-3.13;100.00;98041.47;5010442;28;21065;-76
2021/01/27 08:13:45;;;;;;;12.37;11.07;;;;;;;-2.88;100.00;98042.84;5011122;28;20479;-77
2021/01/27 08:16:43;;;;;;;12.83;11.53;;;;;;;-2.79;100.00;98044.94;5007254;28;20966;-77
2021/01/27 08:19:30;;;;;;;12.00;10.77;;;;;;;-2.66;100.00;98037.38;4964144;28;20701;-77
2021/01/27 08:22:04;;;;;;;11.80;10.63;;;;;;;-2.53;100.00;98041.91;5005991;28;20970;-77
2021/01/27 08:24:59;;;;;;;11.10;10.10;;;;;;;-2.51;100.00;98037.47;5014370;28;20481;-77
2021/01/27 08:27:34;;;;;;;11.80;10.70;;;;;;;-2.33;100.00;98041.72;5014901;28;20204;-76
2021/01/27 08:30:21;;;;;;;10.97;9.87;;;;;;;-1.97;99.31;98037.19;5013294;28;20211;-78
2021/01/27 08:32:48;;;;;;;11.23;10.17;;;;;;;-2.00;99.75;98039.16;5011952;28;20462;-76
2021/01/27 08:35:53;;;;;;;10.40;9.60;;;;;;;-1.87;99.22;98041.91;5010814;28;20436;-76
2021/01/27 08:38:22;;;;;;;10.43;9.50;;;;;;;-1.86;99.63;98039.22;5011211;28;20218;-77
2021/01/27 08:40:50;;;;;;;10.50;9.50;;;;;;;-1.81;98.35;98032.00;5008889;28;20205;-77
2021/01/27 08:43:17;;;;;;;10.27;9.20;;;;;;;-1.78;98.55;98034.44;5010232;28;20731;-76
2021/01/27 08:45:46;;;;;;;11.33;9.40;;;;;;;-1.80;99.74;98038.88;5008923;28;20300;-77
2021/01/27 08:48:45;;;;;;;9.73;8.83;;;;;;;-1.79;98.38;98029.34;5009142;28;20582;-77
2021/01/27 08:51:41;;;;;;;9.93;8.93;;;;;;;-1.58;97.28;98021.25;5009561;28;20664;-77
2021/01/27 08:54:29;;;;;;;10.10;9.13;;;;;;;-1.56;95.14;98024.59;5007910;28;20216;-77
2021/01/27 08:57:16;;;;;;;11.20;8.77;;;;;;;-1.41;93.48;98020.28;5010783;28;20209;-77
2021/01/27 08:59:57;;;;;;;12.20;9.40;;;;;;;-1.54;94.10;98028.78;5011504;28;20224;-78
2021/01/27 09:02:49;;;;;;;9.83;8.90;;;;;;;-1.37;99.18;98012.22;5005340;28;20216;-77
2021/01/27 09:05:36;;;;;;;10.60;9.23;;;;;;;-1.25;94.45;98008.09;5003108;28;20230;-74
2021/01/27 09:08:23;;;;;;;9.43;8.53;;;;;;;-1.13;92.45;98013.50;5012977;28;20212;-77
2021/01/27 09:10:55;;;;;;;10.23;9.23;;;;;;;-1.23;94.20;98021.84;5007261;28;20295;-76
2021/01/27 09:13:27;;;;;;;10.57;9.63;;;;;;;-1.28;92.59;98023.00;5007843;28;20247;-74
2021/01/27 09:15:58;;;;;;;9.17;8.43;;;;;;;-1.06;92.26;98018.25;5004889;28;21309;-77
2021/01/27 09:18:25;;;;;;;9.70;8.80;;;;;;;-1.11;92.06;98001.22;5003784;28;20309;-77
2021/01/27 09:20:52;;;;;;;10.07;9.03;;;;;;;-1.19;91.85;97997.31;5011035;28;20625;-77
2021/01/27 09:23:21;;;;;;;9.37;8.47;;;;;;;-1.11;91.39;97999.47;5010601;28;20235;-74
2021/01/27 09:25:50;;;;;;;9.70;8.90;;;;;;;-1.14;92.19;97996.22;5010936;28;20232;-77
2021/01/27 09:28:22;;;;;;;9.33;8.53;;;;;;;-1.14;92.42;97994.44;5009718;28;20256;-76
2021/01/27 09:30:50;;;;;;;9.23;8.33;;;;;;;-0.91;89.82;97992.25;5013896;28;20204;-76
2021/01/27 09:33:19;;;;;;;9.47;8.50;;;;;;;-0.89;89.99;97996.44;5012364;28;20499;-76
2021/01/27 09:35:47;;;;;;;9.80;8.80;;;;;;;-0.82;90.25;97996.88;5010649;28;20227;-77
2021/01/27 09:38:17;;;;;;;9.93;8.90;;;;;;;-0.66;90.44;97998.59;5007858;28;20586;-77
2021/01/27 09:40:47;;;;;;;9.33;8.43;;;;;;;-0.56;90.67;98004.91;5008568;28;20208;-75
2021/01/27 09:43:15;;;;;;;9.07;8.37;;;;;;;-0.54;89.88;98000.44;5008460;28;20224;-76
2021/01/27 09:45:44;;;;;;;10.63;9.23;;;;;;;-0.20;87.35;97994.88;5008572;28;20212;-76
2021/01/27 09:48:12;;;;;;;8.93;8.23;;;;;;;-0.40;86.96;97986.56;5009806;28;20287;-78
2021/01/27 09:50:42;;;;;;;9.63;7.93;;;;;;;-0.61;88.25;97981.72;5004931;28;20216;-77
2021/01/27 09:53:22;;;;;;;8.90;8.00;;;;;;;-0.45;88.52;97980.81;5002672;28;20227;-77
2021/01/27 09:55:50;;;;;;;10.63;9.53;;;;;;;-0.33;86.78;97987.03;5005025;28;20216;-78
2021/01/27 09:58:17;;;;;;;16.70;11.80;;;;;;;-0.25;85.71;97984.78;5010427;28;20204;-78
2021/01/27 10:00:45;;;;;;;13.37;11.67;;;;;;;-0.17;86.19;97974.72;5008355;28;20231;-76
2021/01/27 10:03:17;;;;;;;10.50;8.83;;;;;;;0.06;83.70;97977.63;5010500;28;20224;-77
2021/01/27 10:05:44;;;;;;;10.60;8.83;;;;;;;-0.10;83.84;97974.31;5009614;28;20233;-77
2021/01/27 10:08:17;;;;;;;12.27;9.57;;;;;;;0.16;83.56;97982.25;5008725;28;20788;-77
2021/01/27 10:11:04;;;;;;;9.50;8.70;;;;;;;-0.03;83.55;97979.06;5007125;28;20228;-77
2021/01/27 10:13:33;;;;;;;8.23;7.43;;;;;;;0.27;80.57;97970.19;5010372;28;20619;-79
2021/01/27 10:16:06;;;;;;;8.67;7.87;;;;;;;0.54;84.06;97971.09;5005977;28;20205;-77
2021/01/27 10:18:34;;;;;;;7.77;7.17;;;;;;;0.40;82.98;97972.00;5001602;28;20209;-78
2021/01/27 10:21:03;;;;;;;8.50;7.70;;;;;;;0.47;82.86;97977.66;5007880;28;20321;-77
2021/01/27 10:23:37;;;;;;;7.97;7.17;;;;;;;0.57;81.93;97974.34;5007269;28;20707;-77
2021/01/27 10:26:35;;;;;;;6.80;6.30;;;;;;;0.84;82.10;97977.81;5011971;28;20208;-77
2021/01/27 10:29:23;;;;;;;8.87;8.07;;;;;;;0.91;80.93;97978.22;5007456;28;20300;-78
2021/01/27 10:31:52;;;;;;;6.93;6.47;;;;;;;1.11;76.77;97975.13;5008833;28;20237;-77
2021/01/27 10:34:36;;;;;;;7.90;7.20;;;;;;;0.84;78.59;97972.63;5009642;28;20766;-76
2021/01/27 10:37:04;;;;;;;6.97;6.30;;;;;;;0.77;78.92;97971.34;5004699;28;20732;-76
2021/01/27 10:39:32;;;;;;;8.00;7.17;;;;;;;0.78;81.44;97978.25;5010327;28;20804;-77
2021/01/27 10:42:22;;;;;;;8.00;7.30;;;;;;;0.69;80.06;97982.28;5006164;28;20216;-77
2021/01/27 10:45:30;;;;;;;8.53;7.57;;;;;;;0.66;79.92;97974.66;5010198;28;20313;-78
2021/01/27 10:48:07;;;;;;;8.83;8.03;;;;;;;0.62;82.25;97970.59;5011896;28;20236;-75
2021/01/27 10:50:36;;;;;;;73.87;51.37;;;;;;;0.84;80.24;97967.38;5007285;28;20262;-77
2021/01/27 10:53:09;;;;;;;12.33;11.23;;;;;;;0.93;79.99;97968.53;5008618;28;20239;-77
2021/01/27 10:55:37;;;;;;;11.30;10.20;;;;;;;0.65;80.38;97960.78;5008819;28;20573;-77
2021/01/27 10:58:07;;;;;;;9.87;8.10;;;;;;;0.90;82.32;97948.72;5005899;28;20771;-76
2021/01/27 11:00:34;;;;;;;10.90;10.00;;;;;;;0.76;80.09;97946.19;5007486;28;20561;-77
2021/01/27 11:03:01;;;;;;;11.00;10.00;;;;;;;1.09;78.13;97943.06;5006551;28;20263;-78
2021/01/27 11:05:29;;;;;;;9.87;8.90;;;;;;;0.96;77.91;97942.25;5008918;28;20311;-76
2021/01/27 11:07:57;;;;;;;11.60;10.53;;;;;;;1.08;78.62;97945.78;5008047;28;20383;-76
2021/01/27 11:10:24;;;;;;;12.47;11.57;;;;;;;0.99;78.83;97942.03;5010137;28;20558;-76
2021/01/27 11:12:51;;;;;;;9.70;8.80;;;;;;;1.01;80.15;97945.38;5008817;28;20460;-76
2021/01/27 11:15:19;;;;;;;9.43;8.40;;;;;;;1.23;78.59;97938.66;5011624;28;20676;-76
2021/01/27 11:17:48;;;;;;;11.53;8.60;;;;;;;1.59;77.95;97929.19;5004618;28;20219;-74
2021/01/27 11:20:18;;;;;;;15.40;14.00;;;;;;;1.34;76.26;97923.09;5007108;28;20287;-76
2021/01/27 11:22:46;;;;;;;13.63;12.43;;;;;;;1.64;75.52;97921.84;5005867;28;20266;-76
2021/01/27 11:25:16;;;;;;;11.87;8.63;;;;;;;1.34;76.41;97909.19;5010281;28;20228;-76
2021/01/27 11:27:44;;;;;;;9.37;8.47;;;;;;;1.51;75.16;97915.84;5011750;28;20201;-76
2021/01/27 11:30:12;;;;;;;9.20;8.13;;;;;;;1.51;75.44;97918.47;5011441;28;20210;-76
2021/01/27 11:32:40;;;;;;;9.53;8.73;;;;;;;1.69;76.67;97916.31;5011906;28;20672;-76
2021/01/27 11:35:08;;;;;;;9.60;8.67;;;;;;;1.57;75.95;97915.41;5003234;28;20232;-76
2021/01/27 11:37:35;;;;;;;9.07;8.27;;;;;;;1.75;75.61;97909.81;5014265;28;20204;-76
2021/01/27 11:40:04;;;;;;;10.03;8.50;;;;;;;1.47;76.52;97915.22;5008576;28;20224;-75
2021/01/27 11:42:31;;;;;;;9.63;8.10;;;;;;;1.60;75.00;97915.19;5012965;28;20204;-76
2021/01/27 11:44:58;;;;;;;8.63;7.93;;;;;;;1.93;75.12;97908.47;5012608;28;20650;-75
2021/01/27 11:47:25;;;;;;;8.33;7.43;;;;;;;1.83;74.66;97905.69;5013873;28;20759;-76